createdAt,value
2019-06-20T00:01:59.247Z,18.66
2019-06-20T00:04:29.278Z,18.73
2019-06-20T00:06:59.463Z,18.76
2019-06-20T00:09:31.963Z,18.65
2019-06-20T00:12:03.084Z,18.67
2019-06-20T00:14:33.123Z,18.63
2019-06-20T00:17:03.245Z,18.73
2019-06-20T00:19:34.138Z,18.73
2019-06-20T00:22:04.279Z,18.73
2019-06-20T00:24:34.422Z,18.71
2019-06-20T00:27:04.558Z,18.73
2019-06-20T00:29:34.662Z,18.74
2019-06-20T00:32:04.946Z,18.82
2019-06-20T00:34:35.265Z,18.73
2019-06-20T00:37:05.299Z,18.71
2019-06-20T00:39:36.438Z,18.74
2019-06-20T00:42:06.699Z,18.79
2019-06-20T00:44:36.782Z,18.81
2019-06-20T00:47:06.922Z,18.72
2019-06-20T00:49:37.069Z,18.80
2019-06-20T00:52:07.200Z,18.84
2019-06-20T00:54:37.366Z,18.85
2019-06-20T00:57:07.467Z,18.83
2019-06-20T00:59:38.390Z,18.83
2019-06-20T01:02:08.464Z,18.82
2019-06-20T01:04:38.527Z,18.82
2019-06-20T01:07:08.544Z,18.80
2019-06-20T01:09:38.718Z,18.78
2019-06-20T01:12:08.885Z,18.72
2019-06-20T01:14:39.443Z,18.70
2019-06-20T01:17:09.457Z,18.69
2019-06-20T01:19:39.666Z,18.70
2019-06-20T01:22:10.461Z,18.62
2019-06-20T01:24:40.857Z,18.59
2019-06-20T01:27:11.440Z,18.53
2019-06-20T01:29:43.096Z,18.54
2019-06-20T01:32:13.724Z,18.49
2019-06-20T01:34:43.817Z,18.42
2019-06-20T01:37:13.968Z,18.36
2019-06-20T01:39:44.085Z,18.29
2019-06-20T01:42:14.345Z,18.28
2019-06-20T01:44:44.980Z,18.24
2019-06-20T01:47:15.077Z,18.24
2019-06-20T01:49:45.117Z,18.23
2019-06-20T01:52:15.726Z,18.20
2019-06-20T01:54:45.762Z,18.08
2019-06-20T01:57:16.233Z,18.06
2019-06-20T01:59:46.340Z,18.12
2019-06-20T02:02:16.517Z,18.09
2019-06-20T02:04:47.060Z,18.08
2019-06-20T02:07:17.239Z,18.04
2019-06-20T02:09:47.346Z,18.03
2019-06-20T02:12:17.525Z,17.96
2019-06-20T02:14:47.641Z,17.90
2019-06-20T02:17:18.170Z,17.82
2019-06-20T02:19:48.903Z,17.73
2019-06-20T02:22:19.092Z,17.74
2019-06-20T02:24:49.263Z,17.70
2019-06-20T02:27:20.490Z,17.72
2019-06-20T02:29:53.504Z,17.74
2019-06-20T02:32:22.488Z,17.74
2019-06-20T02:34:52.584Z,17.68
2019-06-20T02:37:22.726Z,17.67
2019-06-20T02:39:53.053Z,17.69
2019-06-20T02:42:23.274Z,17.63
2019-06-20T02:44:53.464Z,17.72
2019-06-20T02:47:23.674Z,17.72
2019-06-20T02:49:53.782Z,17.73
2019-06-20T02:52:24.517Z,17.68
2019-06-20T02:54:54.656Z,17.68
2019-06-20T02:57:24.814Z,17.66
2019-06-20T02:59:55.340Z,17.65
2019-06-20T03:02:25.414Z,17.65
2019-06-20T03:04:55.549Z,17.63
2019-06-20T03:07:26.276Z,17.67
2019-06-20T03:09:58.475Z,17.60
2019-06-20T03:12:28.575Z,17.53
2019-06-20T03:14:58.802Z,17.56
2019-06-20T03:17:28.948Z,17.61
2019-06-20T03:19:59.104Z,17.69
2019-06-20T03:22:29.332Z,17.71
2019-06-20T03:24:59.421Z,17.65
2019-06-20T03:27:29.650Z,17.67
2019-06-20T03:30:00.354Z,17.67
2019-06-20T03:32:30.599Z,17.73
2019-06-20T03:35:00.685Z,17.68
2019-06-20T03:37:30.885Z,17.71
2019-06-20T03:40:01.491Z,17.73
2019-06-20T03:42:31.661Z,17.72
2019-06-20T03:45:02.797Z,17.74
2019-06-20T03:47:33.026Z,17.73
2019-06-20T03:50:03.076Z,17.76
2019-06-20T03:52:33.319Z,17.76
2019-06-20T03:55:03.555Z,17.70
2019-06-20T03:57:34.091Z,17.70
2019-06-20T04:00:08.676Z,17.73
2019-06-20T04:02:40.882Z,17.78
2019-06-20T04:05:11.618Z,17.63
2019-06-20T04:07:42.377Z,17.70
2019-06-20T04:10:12.849Z,17.79
2019-06-20T04:12:43.056Z,17.83
2019-06-20T04:15:19.033Z,17.81
2019-06-20T04:17:49.260Z,17.79
2019-06-20T04:20:20.307Z,17.86
2019-06-20T04:22:50.871Z,17.89
2019-06-20T04:25:21.523Z,17.85
2019-06-20T04:27:51.810Z,17.86
2019-06-20T04:30:23.063Z,17.83
2019-06-20T04:32:53.638Z,17.84
2019-06-20T04:35:24.119Z,17.86
2019-06-20T04:37:54.653Z,17.85
2019-06-20T04:40:24.977Z,17.82
2019-06-20T04:42:55.223Z,17.83
2019-06-20T04:45:44.329Z,17.87
2019-06-20T04:48:14.814Z,17.97
2019-06-20T04:50:44.971Z,18.08
2019-06-20T04:53:15.133Z,18.15
2019-06-20T04:55:45.319Z,18.23
2019-06-20T04:58:16.728Z,18.19
2019-06-20T05:00:46.823Z,18.07
2019-06-20T05:03:17.117Z,18.02
2019-06-20T05:05:47.397Z,17.98
2019-06-20T05:08:18.735Z,17.96
2019-06-20T05:10:49.380Z,17.88
2019-06-20T05:13:20.505Z,17.86
2019-06-20T05:15:52.874Z,17.82
2019-06-20T05:18:28.497Z,17.83
2019-06-20T05:20:59.267Z,17.72
2019-06-20T05:23:30.310Z,17.61
2019-06-20T05:26:05.011Z,17.57
2019-06-20T05:28:35.375Z,17.56
2019-06-20T05:31:05.497Z,17.59
2019-06-20T05:33:35.700Z,17.58
2019-06-20T05:36:07.057Z,17.60
2019-06-20T05:38:39.335Z,17.70
2019-06-20T05:41:09.556Z,17.87
2019-06-20T05:43:39.683Z,18.03
2019-06-20T05:46:11.297Z,18.23
2019-06-20T05:48:49.422Z,18.37
2019-06-20T05:51:20.080Z,18.51
2019-06-20T05:53:51.434Z,18.69
2019-06-20T05:56:22.499Z,18.78
2019-06-20T05:58:52.980Z,18.80
2019-06-20T06:01:23.075Z,18.91
2019-06-20T06:03:53.528Z,19.02
2019-06-20T06:06:25.965Z,19.10
2019-06-20T06:08:56.133Z,19.30
2019-06-20T06:11:32.468Z,19.44
2019-06-20T06:14:02.604Z,19.57
2019-06-20T06:16:32.721Z,19.60
2019-06-20T06:19:03.946Z,19.66
2019-06-20T06:21:34.270Z,19.67
2019-06-20T06:24:04.437Z,19.64
2019-06-20T06:26:34.535Z,19.62
2019-06-20T06:29:04.764Z,19.57
2019-06-20T06:31:34.908Z,19.56
2019-06-20T06:34:05.112Z,19.60
2019-06-20T06:36:35.560Z,19.66
2019-06-20T06:39:08.525Z,19.60
2019-06-20T06:41:38.965Z,19.53
2019-06-20T06:44:09.075Z,19.54
2019-06-20T06:46:44.768Z,19.63
2019-06-20T06:49:11.171Z,19.74
2019-06-20T06:51:41.724Z,19.81
2019-06-20T06:54:12.115Z,19.91
2019-06-20T06:56:42.321Z,19.98
2019-06-20T06:59:12.450Z,20.06
2019-06-20T07:01:42.540Z,20.13
2019-06-20T07:04:13.440Z,20.05
2019-06-20T07:06:43.740Z,20.05
2019-06-20T07:09:13.865Z,20.02
2019-06-20T07:11:44.343Z,20.10
2019-06-20T07:14:14.617Z,20.06
2019-06-20T07:16:59.419Z,19.96
2019-06-20T07:19:16.619Z,19.99
2019-06-20T07:21:50.374Z,20.18
2019-06-20T07:24:20.531Z,20.21
2019-06-20T07:26:51.719Z,20.46
2019-06-20T07:29:21.892Z,20.61
2019-06-20T07:31:55.238Z,20.72
2019-06-20T07:34:25.507Z,20.69
2019-06-20T07:36:55.676Z,20.60
2019-06-20T07:39:26.053Z,20.59
2019-06-20T07:41:56.378Z,20.53
2019-06-20T07:44:26.941Z,20.50
2019-06-20T07:46:57.031Z,20.22
2019-06-20T07:49:27.604Z,20.31
2019-06-20T07:51:58.332Z,20.33
2019-06-20T07:54:28.586Z,20.36
2019-06-20T07:56:59.437Z,20.42
2019-06-20T07:59:29.841Z,20.61
2019-06-20T08:02:00.392Z,20.83
2019-06-20T08:04:30.595Z,20.67
2019-06-20T08:07:02.978Z,20.93
2019-06-20T08:09:44.502Z,21.13
2019-06-20T08:12:05.166Z,21.30
2019-06-20T08:14:35.306Z,21.43
2019-06-20T08:17:05.450Z,21.38
2019-06-20T08:19:35.900Z,21.33
2019-06-20T08:22:06.222Z,21.41
2019-06-20T08:24:36.473Z,21.52
2019-06-20T08:27:06.873Z,21.34
2019-06-20T08:29:37.103Z,21.28
2019-06-20T08:32:07.331Z,21.12
2019-06-20T08:34:37.983Z,21.02
2019-06-20T08:37:08.468Z,20.91
2019-06-20T08:39:38.600Z,20.83
2019-06-20T08:42:08.855Z,20.75
2019-06-20T08:44:41.305Z,20.74
2019-06-20T08:47:11.474Z,20.85
2019-06-20T08:49:41.800Z,20.85
2019-06-20T08:52:12.050Z,20.90
2019-06-20T08:54:42.271Z,20.83
2019-06-20T08:57:12.593Z,20.74
2019-06-20T08:59:42.847Z,20.65
2019-06-20T09:02:13.113Z,20.71
2019-06-20T09:04:43.209Z,20.57
2019-06-20T09:07:13.458Z,20.45
2019-06-20T09:09:43.628Z,20.29
2019-06-20T09:12:14.076Z,20.17
2019-06-20T09:14:44.208Z,20.07
2019-06-20T09:17:15.012Z,19.98
2019-06-20T09:19:46.157Z,19.92
2019-06-20T09:22:16.785Z,19.95
2019-06-20T09:24:46.853Z,20.06
2019-06-20T09:27:17.159Z,20.41
2019-06-20T09:29:47.296Z,20.65
2019-06-20T09:32:17.417Z,20.88
2019-06-20T09:34:47.639Z,20.98
2019-06-20T09:37:18.929Z,21.03
2019-06-20T09:39:51.556Z,20.93
2019-06-20T09:42:21.674Z,20.89
2019-06-20T09:44:52.624Z,21.04
2019-06-20T09:47:22.868Z,21.00
2019-06-20T09:49:55.581Z,20.87
2019-06-20T09:52:25.035Z,20.96
2019-06-20T09:54:56.127Z,21.15
2019-06-20T09:57:26.792Z,21.16
2019-06-20T10:00:07.610Z,21.15
2019-06-20T10:02:30.736Z,20.92
2019-06-20T10:05:00.915Z,20.74
2019-06-20T10:07:32.061Z,20.45
2019-06-20T10:10:02.871Z,20.18
2019-06-20T10:12:33.653Z,19.91
2019-06-20T10:15:04.159Z,19.88
2019-06-20T10:17:34.438Z,19.91
2019-06-20T10:20:05.151Z,20.14
2019-06-20T10:22:35.215Z,20.61
2019-06-20T10:25:06.183Z,20.92
2019-06-20T10:27:37.583Z,21.05
2019-06-20T10:30:14.323Z,20.91
2019-06-20T10:32:40.572Z,20.98
2019-06-20T10:35:11.168Z,21.14
2019-06-20T10:37:41.843Z,21.13
2019-06-20T10:40:13.147Z,21.20
2019-06-20T10:42:46.085Z,21.09
2019-06-20T10:45:18.976Z,20.78
2019-06-20T10:47:50.512Z,20.66
2019-06-20T10:50:21.670Z,20.46
2019-06-20T10:52:53.348Z,20.28
2019-06-20T10:55:23.496Z,20.15
2019-06-20T10:57:53.967Z,19.97
2019-06-20T11:00:31.274Z,19.87
2019-06-20T11:03:03.977Z,19.90
2019-06-20T11:05:34.956Z,19.99
2019-06-20T11:08:08.066Z,20.10
2019-06-20T11:10:39.978Z,20.17
2019-06-20T11:13:10.633Z,20.34
2019-06-20T11:15:44.440Z,20.51
2019-06-20T11:18:15.219Z,20.54
2019-06-20T11:20:48.786Z,20.59
2019-06-20T11:23:19.006Z,20.37
2019-06-20T11:25:49.390Z,20.04
2019-06-20T11:28:19.650Z,19.80
2019-06-20T11:31:07.815Z,19.61
2019-06-20T11:33:39.023Z,19.51
2019-06-20T11:36:10.084Z,19.53
2019-06-20T11:38:40.943Z,19.86
2019-06-20T11:41:12.112Z,20.24
2019-06-20T11:43:43.289Z,20.48
2019-06-20T11:46:14.269Z,20.35
2019-06-20T11:48:44.408Z,20.18
2019-06-20T11:51:14.556Z,20.07
2019-06-20T11:53:44.716Z,20.08
2019-06-20T11:56:14.981Z,20.38
2019-06-20T11:58:45.148Z,20.95
2019-06-20T12:01:15.359Z,21.14
2019-06-20T12:03:46.648Z,21.19
2019-06-20T12:06:16.994Z,21.06
2019-06-20T12:08:49.302Z,20.88
2019-06-20T12:11:19.571Z,20.79
2019-06-20T12:13:49.643Z,20.59
2019-06-20T12:16:20.041Z,20.54
2019-06-20T12:18:50.176Z,20.60
2019-06-20T12:21:22.003Z,20.85
2019-06-20T12:23:53.189Z,21.02
2019-06-20T12:26:23.701Z,21.27
2019-06-20T12:28:53.823Z,21.36
2019-06-20T12:31:24.217Z,21.23
2019-06-20T12:33:54.542Z,21.21
2019-06-20T12:36:25.048Z,21.23
2019-06-20T12:38:55.163Z,21.21
2019-06-20T12:41:25.779Z,21.28
2019-06-20T12:43:56.562Z,21.36
2019-06-20T12:46:29.058Z,21.47
2019-06-20T12:48:59.662Z,21.68
2019-06-20T12:51:30.325Z,21.79
2019-06-20T12:54:15.748Z,21.63
2019-06-20T12:56:48.190Z,21.38
2019-06-20T12:59:18.427Z,21.07
2019-06-20T13:01:49.904Z,20.90
2019-06-20T13:04:21.807Z,20.75
2019-06-20T13:06:52.982Z,20.69
2019-06-20T13:09:27.598Z,20.58
2019-06-20T13:11:59.104Z,20.42
2019-06-20T13:14:29.507Z,20.36
2019-06-20T13:16:59.957Z,20.41
2019-06-20T13:19:30.034Z,20.44
2019-06-20T13:22:02.312Z,20.58
2019-06-20T13:24:33.077Z,20.80
2019-06-20T13:27:03.199Z,21.09
2019-06-20T13:29:33.468Z,21.58
2019-06-20T13:32:04.637Z,21.83
2019-06-20T13:34:34.885Z,21.97
2019-06-20T13:37:05.196Z,22.10
2019-06-20T13:39:35.544Z,22.04
2019-06-20T13:42:05.715Z,22.18
2019-06-20T13:44:35.980Z,22.69
2019-06-20T13:47:06.190Z,22.57
2019-06-20T13:49:36.473Z,22.32
2019-06-20T13:52:07.652Z,22.10
2019-06-20T13:54:39.651Z,22.04
2019-06-20T13:59:41.633Z,22.70
2019-06-20T14:02:12.959Z,23.49
2019-06-20T14:04:44.426Z,24.08
2019-06-20T14:07:14.816Z,24.38
2019-06-20T14:09:46.492Z,24.85
2019-06-20T14:12:16.697Z,24.30
2019-06-20T14:14:47.863Z,23.61
2019-06-20T14:17:18.226Z,23.06
2019-06-20T14:19:48.734Z,22.67
2019-06-20T14:22:19.328Z,22.43
2019-06-20T14:24:55.505Z,22.95
2019-06-20T14:27:26.166Z,23.54
2019-06-20T14:29:56.258Z,23.91
2019-06-20T14:32:27.148Z,24.10
2019-06-20T14:34:59.883Z,24.00
2019-06-20T14:37:30.144Z,23.86
2019-06-20T14:40:00.947Z,23.78
2019-06-20T14:42:31.187Z,23.91
2019-06-20T14:45:01.431Z,24.05
2019-06-20T14:47:31.573Z,24.11
2019-06-20T14:50:02.337Z,24.16
2019-06-20T14:52:34.344Z,23.96
2019-06-20T14:55:04.885Z,24.11
2019-06-20T14:57:35.085Z,24.55
2019-06-20T15:00:05.715Z,24.88
2019-06-20T15:02:38.905Z,25.26
2019-06-20T15:05:14.205Z,25.53
2019-06-20T15:07:46.700Z,25.92
2019-06-20T15:10:17.537Z,26.27
2019-06-20T15:12:49.488Z,25.62
2019-06-20T15:15:19.511Z,24.84
2019-06-20T15:17:53.261Z,24.15
2019-06-20T15:20:21.859Z,23.68
2019-06-20T15:22:54.544Z,23.40
2019-06-20T15:25:24.996Z,23.80
2019-06-20T15:27:56.819Z,24.18
2019-06-20T15:30:27.478Z,24.56
2019-06-20T15:33:07.477Z,25.16
2019-06-20T15:36:03.428Z,25.89
2019-06-20T15:39:06.024Z,26.53
2019-06-20T15:41:36.205Z,26.87
2019-06-20T15:44:06.305Z,27.01
2019-06-20T15:46:36.638Z,27.28
2019-06-20T15:49:15.738Z,26.68
2019-06-20T15:51:38.666Z,25.88
2019-06-20T15:54:09.491Z,25.40
2019-06-20T15:56:39.780Z,24.96
2019-06-20T15:59:12.506Z,24.54
2019-06-20T16:01:42.724Z,24.19
2019-06-20T16:04:13.584Z,23.82
2019-06-20T16:06:44.879Z,23.38
2019-06-20T16:09:15.255Z,23.11
2019-06-20T16:11:45.505Z,22.85
2019-06-20T16:14:18.006Z,22.87
2019-06-20T16:16:48.069Z,22.85
2019-06-20T16:19:18.760Z,22.81
2019-06-20T16:21:49.462Z,22.72
2019-06-20T16:24:19.902Z,22.65
2019-06-20T16:26:51.266Z,22.55
2019-06-20T16:29:21.608Z,22.49
2019-06-20T16:31:51.714Z,22.54
2019-06-20T16:34:22.163Z,22.55
2019-06-20T16:36:52.722Z,22.64
2019-06-20T16:39:23.216Z,22.59
2019-06-20T16:41:53.653Z,22.54
2019-06-20T16:44:24.461Z,22.45
2019-06-20T16:46:54.933Z,22.35
2019-06-20T16:49:25.574Z,22.28
2019-06-20T16:51:57.318Z,22.22
2019-06-20T16:54:27.847Z,22.17
2019-06-20T16:56:58.562Z,22.06
2019-06-20T16:59:28.960Z,21.88
2019-06-20T17:01:59.596Z,21.75
2019-06-20T17:04:29.825Z,21.75
2019-06-20T17:07:00.158Z,21.77
2019-06-20T17:09:31.632Z,21.82
2019-06-20T17:12:01.865Z,21.88
2019-06-20T17:14:37.297Z,21.89
2019-06-20T17:17:15.175Z,21.89
2019-06-20T17:19:45.605Z,21.87
2019-06-20T17:22:15.778Z,21.86
2019-06-20T17:24:46.075Z,21.87
2019-06-20T17:27:18.563Z,21.99
2019-06-20T17:29:48.809Z,22.00
2019-06-20T17:32:18.991Z,22.06
2019-06-20T17:34:56.612Z,22.54
2019-06-20T17:37:27.417Z,22.97
2019-06-20T17:39:57.707Z,23.16
2019-06-20T17:42:31.273Z,23.36
2019-06-20T17:45:14.043Z,23.47
2019-06-20T17:47:44.798Z,23.48
2019-06-20T17:50:47.502Z,23.45
2019-06-20T17:53:20.089Z,23.51
2019-06-20T17:55:51.633Z,23.53
2019-06-20T17:58:22.148Z,23.46
2019-06-20T18:00:52.646Z,23.36
2019-06-20T18:03:26.805Z,23.11
2019-06-20T18:06:00.198Z,23.03
2019-06-20T18:08:30.855Z,23.00
2019-06-20T18:11:01.852Z,23.02
2019-06-20T18:13:32.088Z,22.91
2019-06-20T18:16:02.440Z,22.93
2019-06-20T18:18:35.350Z,22.98
2019-06-20T18:21:06.296Z,22.90
2019-06-20T18:23:39.518Z,22.97
2019-06-20T18:26:09.844Z,22.93
2019-06-20T18:28:40.031Z,22.85
2019-06-20T18:31:10.172Z,22.69
2019-06-20T18:33:40.960Z,22.49
2019-06-20T18:36:11.115Z,22.48
2019-06-20T18:38:41.186Z,22.41
2019-06-20T18:41:12.553Z,22.33
2019-06-20T18:43:42.693Z,22.26
2019-06-20T18:46:13.522Z,22.12
2019-06-20T18:48:45.468Z,21.94
2019-06-20T18:51:17.202Z,21.75
2019-06-20T18:53:50.513Z,21.60
2019-06-20T18:56:20.259Z,21.46
2019-06-20T18:58:50.485Z,21.27
2019-06-20T19:01:22.084Z,21.06
2019-06-20T19:03:52.953Z,20.93
2019-06-20T19:06:35.603Z,20.82
2019-06-20T19:08:55.744Z,20.76
2019-06-20T19:11:26.041Z,20.61
2019-06-20T19:13:56.739Z,20.38
2019-06-20T19:16:27.150Z,20.13
2019-06-20T19:18:57.428Z,19.95
2019-06-20T19:21:27.809Z,19.87
2019-06-20T19:23:58.992Z,19.77
2019-06-20T19:26:29.578Z,19.69
2019-06-20T19:28:59.764Z,19.63
2019-06-20T19:31:31.212Z,19.63
2019-06-20T19:34:09.402Z,19.56
2019-06-20T19:36:52.896Z,19.50
2019-06-20T19:39:23.464Z,19.49
2019-06-20T19:41:53.655Z,19.48
2019-06-20T19:44:25.328Z,19.44
2019-06-20T19:46:55.889Z,19.40
2019-06-20T19:49:25.996Z,19.41
2019-06-20T19:51:58.841Z,19.41
2019-06-20T19:54:31.090Z,19.32
2019-06-20T19:57:07.874Z,19.31
2019-06-20T19:59:49.897Z,19.28
2019-06-20T20:02:21.609Z,19.24
2019-06-20T20:04:52.519Z,19.20
2019-06-20T20:07:22.856Z,19.07
2019-06-20T20:09:53.051Z,19.05
2019-06-20T20:12:23.273Z,18.95
2019-06-20T20:14:54.087Z,18.79
2019-06-20T20:17:28.804Z,18.74
2019-06-20T20:20:01.180Z,18.67
2019-06-20T20:22:31.279Z,18.62
2019-06-20T20:25:01.345Z,18.60
2019-06-20T20:27:31.543Z,18.58
2019-06-20T20:30:03.940Z,18.51
2019-06-20T20:32:34.335Z,18.49
2019-06-20T20:35:04.618Z,18.47
2019-06-20T20:37:35.274Z,18.44
2019-06-20T20:40:06.876Z,18.36
2019-06-20T20:42:37.353Z,18.31
2019-06-20T20:45:08.418Z,18.27
2019-06-20T20:47:39.026Z,18.28
2019-06-20T20:50:10.473Z,18.27
2019-06-20T20:52:40.820Z,18.28
2019-06-20T20:55:11.900Z,18.24
2019-06-20T20:57:42.074Z,18.20
2019-06-20T21:00:13.380Z,18.16
2019-06-20T21:02:43.903Z,18.13
2019-06-20T21:05:14.103Z,18.11
2019-06-20T21:07:44.825Z,18.10
2019-06-20T21:10:15.064Z,18.06
2019-06-20T21:12:45.187Z,18.07
2019-06-20T21:15:16.327Z,18.08
2019-06-20T21:17:46.519Z,18.11
2019-06-20T21:20:18.775Z,18.13
2019-06-20T21:22:49.509Z,18.13
2019-06-20T21:25:20.573Z,18.14
2019-06-20T21:27:51.466Z,18.13
2019-06-20T21:30:21.884Z,18.11
2019-06-20T21:32:52.548Z,18.10
2019-06-20T21:35:22.900Z,18.09
2019-06-20T21:37:53.040Z,18.08
2019-06-20T21:40:23.341Z,18.09
2019-06-20T21:42:54.284Z,18.13
2019-06-20T21:45:24.887Z,18.15
2019-06-20T21:47:55.107Z,18.13
2019-06-20T21:50:25.230Z,18.13
2019-06-20T21:52:55.514Z,18.11
2019-06-20T21:55:25.725Z,18.11
2019-06-20T21:57:56.202Z,18.09
2019-06-20T22:00:30.732Z,18.05
2019-06-20T22:03:00.899Z,18.02
2019-06-20T22:05:31.154Z,18.00
2019-06-20T22:08:02.610Z,17.97
2019-06-20T22:10:32.772Z,17.92
2019-06-20T22:13:03.150Z,17.88
2019-06-20T22:15:34.773Z,17.88
2019-06-20T22:18:05.420Z,17.88
2019-06-20T22:20:35.609Z,17.89
2019-06-20T22:23:06.017Z,17.89
2019-06-20T22:25:36.899Z,17.86
2019-06-20T22:28:07.840Z,17.83
2019-06-20T22:30:51.310Z,17.77
2019-06-20T22:33:21.598Z,17.75
2019-06-20T22:35:51.893Z,17.73
2019-06-20T22:38:22.624Z,17.69
2019-06-20T22:40:53.880Z,17.61
2019-06-20T22:43:24.410Z,17.56
2019-06-20T22:45:55.351Z,17.54
2019-06-20T22:48:25.491Z,17.51
2019-06-20T22:50:57.205Z,17.46
2019-06-20T22:53:27.416Z,17.42
2019-06-20T22:55:57.675Z,17.42
2019-06-20T22:58:28.261Z,17.44
2019-06-20T23:00:58.405Z,17.45
2019-06-20T23:03:28.742Z,17.46
2019-06-20T23:05:59.055Z,17.44
2019-06-20T23:08:29.328Z,17.40
2019-06-20T23:10:59.996Z,17.37
2019-06-20T23:13:30.128Z,17.29
2019-06-20T23:16:00.625Z,17.19
2019-06-20T23:18:32.854Z,17.11
2019-06-20T23:21:05.007Z,17.05
2019-06-20T23:23:35.268Z,16.99
2019-06-20T23:26:07.090Z,16.92
2019-06-20T23:28:37.309Z,16.87
2019-06-20T23:31:07.458Z,16.84
2019-06-20T23:33:37.643Z,16.82
2019-06-20T23:36:07.685Z,16.78
2019-06-20T23:38:38.005Z,16.73
2019-06-20T23:41:09.085Z,16.67
2019-06-20T23:43:40.321Z,16.64
2019-06-20T23:46:10.403Z,16.61
2019-06-20T23:48:40.436Z,16.62
2019-06-20T23:51:24.739Z,16.56
2019-06-20T23:53:43.883Z,16.55
2019-06-20T23:56:20.801Z,16.54
2019-06-20T23:58:51.434Z,16.50
